sensor_id;sensor_type;location;lat;lon;timestamp;pressure;altitude;pressure_sealevel;temperature;humidity
76122;BME280;64853;53.200;6.080;2023-03-01T00:04:22;103296.63;;;17.48;39.64
76122;BME280;64853;53.200;6.080;2023-03-01T00:09:15;103308.09;;;17.52;39.48
76122;BME280;64853;53.200;6.080;2023-03-01T00:14:07;103307.66;;;17.48;39.57
76122;BME280;64853;53.200;6.080;2023-03-01T00:19:01;103309.81;;;17.46;39.51
76122;BME280;64853;53.200;6.080;2023-03-01T00:23:53;103303.50;;;17.39;39.59
76122;BME280;64853;53.200;6.080;2023-03-01T00:28:45;103292.47;;;17.39;39.40
76122;BME280;64853;53.200;6.080;2023-03-01T00:33:37;103302.28;;;17.35;39.34
76122;BME280;64853;53.200;6.080;2023-03-01T00:38:34;103302.50;;;17.33;39.53
76122;BME280;64853;53.200;6.080;2023-03-01T00:43:26;103293.84;;;17.29;39.56
76122;BME280;64853;53.200;6.080;2023-03-01T00:48:18;103302.53;;;17.26;39.40
76122;BME280;64853;53.200;6.080;2023-03-01T00:53:10;103306.78;;;17.22;39.53
76122;BME280;64853;53.200;6.080;2023-03-01T00:58:04;103307.25;;;17.19;39.29
76122;BME280;64853;53.200;6.080;2023-03-01T01:02:56;103305.78;;;17.17;39.54
76122;BME280;64853;53.200;6.080;2023-03-01T01:07:48;103301.56;;;17.14;39.41
76122;BME280;64853;53.200;6.080;2023-03-01T01:12:40;103296.47;;;17.11;39.26
76122;BME280;64853;53.200;6.080;2023-03-01T01:17:33;103288.63;;;17.08;39.31
76122;BME280;64853;53.200;6.080;2023-03-01T01:22:25;103288.03;;;17.06;39.25
76122;BME280;64853;53.200;6.080;2023-03-01T01:27:17;103281.25;;;17.02;39.13
76122;BME280;64853;53.200;6.080;2023-03-01T01:32:09;103271.53;;;16.99;39.14
76122;BME280;64853;53.200;6.080;2023-03-01T01:37:02;103272.81;;;16.97;39.26
76122;BME280;64853;53.200;6.080;2023-03-01T01:41:58;103272.19;;;16.94;38.97
76122;BME280;64853;53.200;6.080;2023-03-01T01:46:50;103267.13;;;16.91;39.03
76122;BME280;64853;53.200;6.080;2023-03-01T01:51:46;103253.81;;;16.88;39.25
76122;BME280;64853;53.200;6.080;2023-03-01T01:56:40;103249.34;;;16.87;39.05
76122;BME280;64853;53.200;6.080;2023-03-01T02:01:34;103240.69;;;16.84;39.06
76122;BME280;64853;53.200;6.080;2023-03-01T02:06:29;103227.16;;;16.82;39.09
76122;BME280;64853;53.200;6.080;2023-03-01T02:11:23;103196.47;;;16.79;38.63
76122;BME280;64853;53.200;6.080;2023-03-01T02:16:17;103208.94;;;16.81;38.81
76122;BME280;64853;53.200;6.080;2023-03-01T02:21:17;103224.13;;;16.90;39.01
76122;BME280;64853;53.200;6.080;2023-03-01T02:26:18;103213.56;;;16.87;38.79
76122;BME280;64853;53.200;6.080;2023-03-01T02:31:17;103181.91;;;16.71;38.81
76122;BME280;64853;53.200;6.080;2023-03-01T02:36:30;103196.97;;;16.94;38.56
76122;BME280;64853;53.200;6.080;2023-03-01T02:41:23;103202.28;;;16.95;38.61
76122;BME280;64853;53.200;6.080;2023-03-01T02:46:19;103190.25;;;16.90;38.73
76122;BME280;64853;53.200;6.080;2023-03-01T02:51:24;103184.06;;;16.94;38.49
76122;BME280;64853;53.200;6.080;2023-03-01T02:56:19;103180.25;;;16.95;38.34
76122;BME280;64853;53.200;6.080;2023-03-01T03:01:11;103173.50;;;16.91;38.30
76122;BME280;64853;53.200;6.080;2023-03-01T03:06:05;103185.19;;;16.87;38.63
76122;BME280;64853;53.200;6.080;2023-03-01T03:10:57;103180.50;;;16.87;38.37
76122;BME280;64853;53.200;6.080;2023-03-01T03:15:49;103183.44;;;16.92;38.25
76122;BME280;64853;53.200;6.080;2023-03-01T03:20:41;103172.25;;;16.87;38.35
76122;BME280;64853;53.200;6.080;2023-03-01T03:25:35;103175.00;;;16.87;38.31
76122;BME280;64853;53.200;6.080;2023-03-01T03:30:30;103169.50;;;16.87;38.27
76122;BME280;64853;53.200;6.080;2023-03-01T03:35:24;103172.69;;;16.84;38.10
76122;BME280;64853;53.200;6.080;2023-03-01T03:40:17;103175.84;;;16.88;38.09
76122;BME280;64853;53.200;6.080;2023-03-01T03:45:10;103170.97;;;16.90;37.89
76122;BME280;64853;53.200;6.080;2023-03-01T03:50:02;103164.00;;;16.87;38.01
76122;BME280;64853;53.200;6.080;2023-03-01T03:54:54;103145.88;;;16.73;37.96
76122;BME280;64853;53.200;6.080;2023-03-01T03:59:46;103165.25;;;16.91;37.80
76122;BME280;64853;53.200;6.080;2023-03-01T04:04:39;103179.25;;;16.90;37.84
76122;BME280;64853;53.200;6.080;2023-03-01T04:09:32;103153.47;;;16.77;38.08
76122;BME280;64853;53.200;6.080;2023-03-01T04:14:24;103164.38;;;16.91;37.52
76122;BME280;64853;53.200;6.080;2023-03-01T04:19:16;103151.69;;;16.90;37.68
76122;BME280;64853;53.200;6.080;2023-03-01T04:24:10;103154.47;;;16.90;37.93
76122;BME280;64853;53.200;6.080;2023-03-01T04:29:03;103158.03;;;16.90;37.67
76122;BME280;64853;53.200;6.080;2023-03-01T04:33:55;103164.22;;;16.86;37.87
76122;BME280;64853;53.200;6.080;2023-03-01T04:38:47;103153.81;;;16.88;37.79
76122;BME280;64853;53.200;6.080;2023-03-01T04:43:41;103152.84;;;17.01;37.58
76122;BME280;64853;53.200;6.080;2023-03-01T04:48:34;103134.16;;;17.09;37.36
76122;BME280;64853;53.200;6.080;2023-03-01T04:53:27;103137.00;;;17.28;37.02
76122;BME280;64853;53.200;6.080;2023-03-01T04:58:18;103140.31;;;17.55;37.20
76122;BME280;64853;53.200;6.080;2023-03-01T05:03:11;103147.84;;;17.66;37.02
76122;BME280;64853;53.200;6.080;2023-03-01T05:08:08;103144.91;;;17.80;36.79
76122;BME280;64853;53.200;6.080;2023-03-01T05:13:08;103110.16;;;17.79;36.82
76122;BME280;64853;53.200;6.080;2023-03-01T05:18:00;103141.25;;;18.05;36.60
76122;BME280;64853;53.200;6.080;2023-03-01T05:22:56;103115.84;;;18.02;36.44
76122;BME280;64853;53.200;6.080;2023-03-01T05:27:48;103120.69;;;18.19;36.56
76122;BME280;64853;53.200;6.080;2023-03-01T05:32:42;103106.09;;;18.30;36.47
76122;BME280;64853;53.200;6.080;2023-03-01T05:37:35;103081.97;;;18.26;36.43
76122;BME280;64853;53.200;6.080;2023-03-01T05:42:28;103083.56;;;18.33;36.34
76122;BME280;64853;53.200;6.080;2023-03-01T05:47:21;103087.09;;;18.52;36.15
76122;BME280;64853;53.200;6.080;2023-03-01T05:52:12;103084.84;;;18.61;36.02
76122;BME280;64853;53.200;6.080;2023-03-01T05:57:04;103083.66;;;18.69;35.70
76122;BME280;64853;53.200;6.080;2023-03-01T06:01:57;103075.72;;;18.72;36.08
76122;BME280;64853;53.200;6.080;2023-03-01T06:06:49;103078.16;;;18.81;35.85
76122;BME280;64853;53.200;6.080;2023-03-01T06:11:40;103080.34;;;18.90;35.83
76122;BME280;64853;53.200;6.080;2023-03-01T06:16:33;103081.31;;;18.96;35.89
76122;BME280;64853;53.200;6.080;2023-03-01T06:21:26;103087.06;;;19.06;35.68
76122;BME280;64853;53.200;6.080;2023-03-01T06:26:18;103081.66;;;19.11;35.35
76122;BME280;64853;53.200;6.080;2023-03-01T06:31:10;103082.63;;;19.17;35.59
76122;BME280;64853;53.200;6.080;2023-03-01T06:36:02;103097.41;;;19.23;35.64
76122;BME280;64853;53.200;6.080;2023-03-01T06:40:55;103096.91;;;19.26;35.53
76122;BME280;64853;53.200;6.080;2023-03-01T06:45:47;103098.94;;;19.30;35.19
76122;BME280;64853;53.200;6.080;2023-03-01T06:50:39;103094.75;;;19.28;35.20
76122;BME280;64853;53.200;6.080;2023-03-01T06:55:31;103099.06;;;19.24;35.53
76122;BME280;64853;53.200;6.080;2023-03-01T07:00:26;103102.94;;;19.23;35.49
76122;BME280;64853;53.200;6.080;2023-03-01T07:05:18;103105.34;;;19.31;35.26
76122;BME280;64853;53.200;6.080;2023-03-01T07:10:11;103114.22;;;19.33;35.19
76122;BME280;64853;53.200;6.080;2023-03-01T07:15:04;103107.38;;;19.36;35.90
76122;BME280;64853;53.200;6.080;2023-03-01T07:19:57;103110.50;;;19.39;37.30
76122;BME280;64853;53.200;6.080;2023-03-01T07:24:49;103111.69;;;19.43;36.38
76122;BME280;64853;53.200;6.080;2023-03-01T07:29:41;103107.25;;;19.42;36.75
76122;BME280;64853;53.200;6.080;2023-03-01T07:34:33;103115.69;;;19.59;39.14
76122;BME280;64853;53.200;6.080;2023-03-01T07:39:26;103123.97;;;19.59;36.87
76122;BME280;64853;53.200;6.080;2023-03-01T07:44:18;103112.50;;;19.56;37.25
76122;BME280;64853;53.200;6.080;2023-03-01T07:49:10;103106.75;;;19.45;36.75
76122;BME280;64853;53.200;6.080;2023-03-01T07:54:02;103121.66;;;19.56;36.71
76122;BME280;64853;53.200;6.080;2023-03-01T07:58:55;103110.59;;;19.44;36.62
76122;BME280;64853;53.200;6.080;2023-03-01T08:03:48;103105.56;;;19.41;36.35
76122;BME280;64853;53.200;6.080;2023-03-01T08:08:40;103129.00;;;19.51;37.07
76122;BME280;64853;53.200;6.080;2023-03-01T08:13:33;103115.31;;;19.44;36.93
76122;BME280;64853;53.200;6.080;2023-03-01T08:18:26;103129.94;;;19.44;36.12
76122;BME280;64853;53.200;6.080;2023-03-01T08:23:18;103127.66;;;19.41;36.73
76122;BME280;64853;53.200;6.080;2023-03-01T08:28:09;103126.84;;;19.41;35.98
76122;BME280;64853;53.200;6.080;2023-03-01T08:33:01;103107.00;;;19.32;36.35
76122;BME280;64853;53.200;6.080;2023-03-01T08:37:55;103107.47;;;19.29;36.12
76122;BME280;64853;53.200;6.080;2023-03-01T08:42:47;103118.28;;;19.30;38.36
76122;BME280;64853;53.200;6.080;2023-03-01T08:47:39;103109.41;;;19.28;38.80
76122;BME280;64853;53.200;6.080;2023-03-01T08:52:32;103084.31;;;19.18;37.70
76122;BME280;64853;53.200;6.080;2023-03-01T08:57:26;103095.72;;;19.22;37.75
76122;BME280;64853;53.200;6.080;2023-03-01T09:02:18;103088.53;;;19.09;37.65
76122;BME280;64853;53.200;6.080;2023-03-01T09:07:11;103080.84;;;18.99;37.46
76122;BME280;64853;53.200;6.080;2023-03-01T09:12:03;103107.84;;;19.21;37.04
76122;BME280;64853;53.200;6.080;2023-03-01T09:16:56;103102.69;;;19.13;37.05
76122;BME280;64853;53.200;6.080;2023-03-01T09:21:48;103100.50;;;19.15;36.77
76122;BME280;64853;53.200;6.080;2023-03-01T09:26:43;103102.69;;;19.13;37.07
76122;BME280;64853;53.200;6.080;2023-03-01T09:31:36;103076.97;;;19.00;36.83
76122;BME280;64853;53.200;6.080;2023-03-01T09:36:30;103087.91;;;19.07;37.03
76122;BME280;64853;53.200;6.080;2023-03-01T09:41:37;103076.59;;;19.08;36.85
76122;BME280;64853;53.200;6.080;2023-03-01T09:46:33;103073.84;;;19.08;36.92
76122;BME280;64853;53.200;6.080;2023-03-01T09:51:31;103092.13;;;19.09;36.55
76122;BME280;64853;53.200;6.080;2023-03-01T09:56:32;103078.19;;;19.04;36.90
76122;BME280;64853;53.200;6.080;2023-03-01T10:01:29;103092.34;;;19.08;37.15
76122;BME280;64853;53.200;6.080;2023-03-01T10:06:25;103095.13;;;19.08;36.89
76122;BME280;64853;53.200;6.080;2023-03-01T10:11:21;103092.25;;;19.03;36.93
76122;BME280;64853;53.200;6.080;2023-03-01T10:16:17;103084.31;;;18.95;36.80
76122;BME280;64853;53.200;6.080;2023-03-01T10:21:14;103090.53;;;19.02;37.09
76122;BME280;64853;53.200;6.080;2023-03-01T10:31:40;103072.31;;;19.01;36.88
76122;BME280;64853;53.200;6.080;2023-03-01T10:36:33;103063.31;;;19.05;36.94
76122;BME280;64853;53.200;6.080;2023-03-01T10:41:26;103048.97;;;19.08;38.15
76122;BME280;64853;53.200;6.080;2023-03-01T10:46:27;103051.41;;;19.17;38.09
76122;BME280;64853;53.200;6.080;2023-03-01T10:51:22;103046.69;;;19.17;38.63
76122;BME280;64853;53.200;6.080;2023-03-01T10:56:14;103042.03;;;19.06;38.37
76122;BME280;64853;53.200;6.080;2023-03-01T11:01:25;103045.72;;;19.11;37.85
76122;BME280;64853;53.200;6.080;2023-03-01T11:06:22;103043.81;;;19.00;37.46
76122;BME280;64853;53.200;6.080;2023-03-01T11:11:19;103045.63;;;19.06;37.57
76122;BME280;64853;53.200;6.080;2023-03-01T11:16:12;103044.06;;;19.10;38.09
76122;BME280;64853;53.200;6.080;2023-03-01T11:21:05;103048.50;;;19.11;37.66
76122;BME280;64853;53.200;6.080;2023-03-01T11:26:04;103044.06;;;19.10;37.96
76122;BME280;64853;53.200;6.080;2023-03-01T11:31:02;103047.16;;;19.26;40.31
76122;BME280;64853;53.200;6.080;2023-03-01T11:36:00;103026.03;;;19.20;38.07
76122;BME280;64853;53.200;6.080;2023-03-01T11:40:58;103028.50;;;19.45;39.15
76122;BME280;64853;53.200;6.080;2023-03-01T11:46:29;103023.44;;;19.54;39.31
76122;BME280;64853;53.200;6.080;2023-03-01T11:51:38;103029.09;;;19.59;39.25
76122;BME280;64853;53.200;6.080;2023-03-01T11:56:36;103024.03;;;19.68;42.68
76122;BME280;64853;53.200;6.080;2023-03-01T12:01:48;103007.88;;;19.76;39.44
76122;BME280;64853;53.200;6.080;2023-03-01T12:06:50;103006.53;;;19.79;39.11
76122;BME280;64853;53.200;6.080;2023-03-01T12:11:55;102995.81;;;19.82;38.54
76122;BME280;64853;53.200;6.080;2023-03-01T12:17:11;102975.47;;;19.89;38.29
76122;BME280;64853;53.200;6.080;2023-03-01T12:22:24;102974.06;;;20.03;37.74
76122;BME280;64853;53.200;6.080;2023-03-01T12:27:36;102973.56;;;20.06;37.23
76122;BME280;64853;53.200;6.080;2023-03-01T12:32:42;102951.75;;;19.93;37.54
76122;BME280;64853;53.200;6.080;2023-03-01T12:37:46;102966.84;;;20.02;37.40
76122;BME280;64853;53.200;6.080;2023-03-01T12:42:43;102964.47;;;19.94;37.06
76122;BME280;64853;53.200;6.080;2023-03-01T12:47:56;102958.94;;;19.94;36.65
76122;BME280;64853;53.200;6.080;2023-03-01T12:52:52;102953.31;;;19.89;36.49
76122;BME280;64853;53.200;6.080;2023-03-01T12:57:47;102951.56;;;19.82;36.85
76122;BME280;64853;53.200;6.080;2023-03-01T13:02:49;102943.16;;;19.77;36.81
76122;BME280;64853;53.200;6.080;2023-03-01T13:07:50;102933.19;;;19.76;36.42
76122;BME280;64853;53.200;6.080;2023-03-01T13:12:49;102921.84;;;19.61;35.74
76122;BME280;64853;53.200;6.080;2023-03-01T13:17:43;102929.91;;;19.62;35.46
76122;BME280;64853;53.200;6.080;2023-03-01T13:22:38;102929.06;;;19.62;35.60
76122;BME280;64853;53.200;6.080;2023-03-01T13:27:30;102899.41;;;19.45;35.51
76122;BME280;64853;53.200;6.080;2023-03-01T13:32:24;102908.88;;;19.50;35.79
76122;BME280;64853;53.200;6.080;2023-03-01T13:37:30;102902.09;;;19.57;36.13
76122;BME280;64853;53.200;6.080;2023-03-01T13:42:39;102910.41;;;19.57;36.54
76122;BME280;64853;53.200;6.080;2023-03-01T13:47:36;102914.41;;;19.50;36.36
76122;BME280;64853;53.200;6.080;2023-03-01T13:52:36;102907.06;;;19.55;36.69
76122;BME280;64853;53.200;6.080;2023-03-01T13:57:34;102899.00;;;19.54;36.48
76122;BME280;64853;53.200;6.080;2023-03-01T14:02:29;102893.97;;;19.51;36.61
76122;BME280;64853;53.200;6.080;2023-03-01T14:07:23;102879.66;;;19.54;36.50
76122;BME280;64853;53.200;6.080;2023-03-01T14:12:26;102880.16;;;19.51;36.68
76122;BME280;64853;53.200;6.080;2023-03-01T14:17:43;102889.28;;;19.51;38.20
76122;BME280;64853;53.200;6.080;2023-03-01T14:22:36;102879.41;;;19.55;37.93
76122;BME280;64853;53.200;6.080;2023-03-01T14:27:33;102870.78;;;19.52;38.06
76122;BME280;64853;53.200;6.080;2023-03-01T14:32:29;102864.47;;;19.39;38.19
76122;BME280;64853;53.200;6.080;2023-03-01T14:37:24;102857.59;;;19.42;38.60
76122;BME280;64853;53.200;6.080;2023-03-01T14:42:16;102840.84;;;19.48;38.48
76122;BME280;64853;53.200;6.080;2023-03-01T14:47:12;102839.75;;;19.50;39.08
76122;BME280;64853;53.200;6.080;2023-03-01T14:52:17;102837.16;;;19.43;38.53
76122;BME280;64853;53.200;6.080;2023-03-01T14:57:14;102840.91;;;19.37;38.67
76122;BME280;64853;53.200;6.080;2023-03-01T15:02:12;102828.03;;;19.42;38.59
76122;BME280;64853;53.200;6.080;2023-03-01T15:07:12;102827.38;;;19.52;38.09
76122;BME280;64853;53.200;6.080;2023-03-01T15:12:35;102811.28;;;19.49;38.00
76122;BME280;64853;53.200;6.080;2023-03-01T15:17:31;102794.09;;;19.47;38.69
76122;BME280;64853;53.200;6.080;2023-03-01T15:22:26;102800.69;;;19.58;38.38
76122;BME280;64853;53.200;6.080;2023-03-01T15:27:20;102795.31;;;19.68;38.61
76122;BME280;64853;53.200;6.080;2023-03-01T15:32:25;102795.81;;;19.65;38.37
76122;BME280;64853;53.200;6.080;2023-03-01T15:37:38;102797.41;;;19.61;38.22
76122;BME280;64853;53.200;6.080;2023-03-01T15:42:36;102803.31;;;19.53;38.47
76122;BME280;64853;53.200;6.080;2023-03-01T15:47:30;102787.75;;;19.63;37.75
76122;BME280;64853;53.200;6.080;2023-03-01T15:52:26;102769.16;;;19.59;38.03
76122;BME280;64853;53.200;6.080;2023-03-01T15:57:21;102779.22;;;19.65;38.31
76122;BME280;64853;53.200;6.080;2023-03-01T16:02:13;102772.16;;;19.57;37.96
76122;BME280;64853;53.200;6.080;2023-03-01T16:07:06;102772.31;;;19.51;38.69
76122;BME280;64853;53.200;6.080;2023-03-01T16:11:58;102756.47;;;19.46;38.24
76122;BME280;64853;53.200;6.080;2023-03-01T16:16:51;102771.09;;;19.58;38.79
76122;BME280;64853;53.200;6.080;2023-03-01T16:21:43;102777.28;;;19.48;38.58
76122;BME280;64853;53.200;6.080;2023-03-01T16:26:37;102770.13;;;19.36;38.64
76122;BME280;64853;53.200;6.080;2023-03-01T16:31:29;102773.31;;;19.44;38.71
76122;BME280;64853;53.200;6.080;2023-03-01T16:36:23;102785.88;;;19.35;38.72
76122;BME280;64853;53.200;6.080;2023-03-01T16:41:17;102786.84;;;19.29;39.07
76122;BME280;64853;53.200;6.080;2023-03-01T16:46:10;102776.91;;;19.28;38.82
76122;BME280;64853;53.200;6.080;2023-03-01T16:51:02;102777.31;;;19.20;39.20
76122;BME280;64853;53.200;6.080;2023-03-01T16:55:56;102772.13;;;19.23;39.19
76122;BME280;64853;53.200;6.080;2023-03-01T17:00:48;102768.34;;;19.13;38.83
76122;BME280;64853;53.200;6.080;2023-03-01T17:05:40;102778.16;;;19.20;38.77
76122;BME280;64853;53.200;6.080;2023-03-01T17:10:32;102773.38;;;19.16;39.22
76122;BME280;64853;53.200;6.080;2023-03-01T17:15:26;102772.78;;;19.14;39.06
76122;BME280;64853;53.200;6.080;2023-03-01T17:20:18;102783.34;;;19.17;38.86
76122;BME280;64853;53.200;6.080;2023-03-01T17:25:10;102787.19;;;19.16;38.86
76122;BME280;64853;53.200;6.080;2023-03-01T17:30:03;102776.09;;;18.99;39.55
76122;BME280;64853;53.200;6.080;2023-03-01T17:34:56;102782.41;;;19.11;39.42
76122;BME280;64853;53.200;6.080;2023-03-01T17:39:48;102782.84;;;19.20;39.23
76122;BME280;64853;53.200;6.080;2023-03-01T17:44:40;102786.53;;;19.25;39.66
76122;BME280;64853;53.200;6.080;2023-03-01T17:49:32;102790.66;;;19.23;40.23
76122;BME280;64853;53.200;6.080;2023-03-01T17:54:25;102785.63;;;19.20;39.81
76122;BME280;64853;53.200;6.080;2023-03-01T17:59:17;102803.44;;;19.29;39.61
76122;BME280;64853;53.200;6.080;2023-03-01T18:04:09;102813.41;;;19.30;39.15
76122;BME280;64853;53.200;6.080;2023-03-01T18:09:01;102817.13;;;19.36;39.53
76122;BME280;64853;53.200;6.080;2023-03-01T18:13:54;102817.88;;;19.31;39.17
76122;BME280;64853;53.200;6.080;2023-03-01T18:18:47;102816.09;;;19.25;39.75
76122;BME280;64853;53.200;6.080;2023-03-01T18:23:39;102816.69;;;19.27;39.52
76122;BME280;64853;53.200;6.080;2023-03-01T18:28:32;102811.47;;;19.14;39.09
76122;BME280;64853;53.200;6.080;2023-03-01T18:33:26;102826.56;;;19.23;39.39
76122;BME280;64853;53.200;6.080;2023-03-01T18:38:17;102819.34;;;19.22;39.61
76122;BME280;64853;53.200;6.080;2023-03-01T18:43:09;102814.25;;;19.30;40.44
76122;BME280;64853;53.200;6.080;2023-03-01T18:48:00;102804.00;;;19.14;41.05
76122;BME280;64853;53.200;6.080;2023-03-01T18:52:54;102821.22;;;19.33;42.32
76122;BME280;64853;53.200;6.080;2023-03-01T18:57:46;102828.44;;;19.34;41.55
76122;BME280;64853;53.200;6.080;2023-03-01T19:02:38;102832.44;;;19.26;40.50
76122;BME280;64853;53.200;6.080;2023-03-01T19:07:29;102832.84;;;19.18;40.43
76122;BME280;64853;53.200;6.080;2023-03-01T19:12:22;102823.59;;;19.13;40.42
76122;BME280;64853;53.200;6.080;2023-03-01T19:17:14;102835.59;;;19.18;40.11
76122;BME280;64853;53.200;6.080;2023-03-01T19:22:06;102834.88;;;19.23;40.46
76122;BME280;64853;53.200;6.080;2023-03-01T19:26:58;102843.66;;;19.20;40.03
76122;BME280;64853;53.200;6.080;2023-03-01T19:31:51;102840.97;;;19.25;40.11
76122;BME280;64853;53.200;6.080;2023-03-01T19:36:43;102847.00;;;19.22;40.19
76122;BME280;64853;53.200;6.080;2023-03-01T19:41:38;102843.16;;;19.23;40.07
76122;BME280;64853;53.200;6.080;2023-03-01T19:46:30;102840.63;;;19.21;39.93
76122;BME280;64853;53.200;6.080;2023-03-01T19:51:23;102835.00;;;19.16;40.21
76122;BME280;64853;53.200;6.080;2023-03-01T19:56:15;102839.28;;;19.24;40.12
76122;BME280;64853;53.200;6.080;2023-03-01T20:01:14;102851.44;;;19.23;39.90
76122;BME280;64853;53.200;6.080;2023-03-01T20:06:09;102851.69;;;19.21;40.43
76122;BME280;64853;53.200;6.080;2023-03-01T20:11:03;102860.56;;;19.23;40.10
76122;BME280;64853;53.200;6.080;2023-03-01T20:15:55;102854.31;;;19.28;39.82
76122;BME280;64853;53.200;6.080;2023-03-01T20:20:47;102852.69;;;19.32;44.81
76122;BME280;64853;53.200;6.080;2023-03-01T20:25:39;102840.47;;;19.28;42.42
76122;BME280;64853;53.200;6.080;2023-03-01T20:30:32;102811.47;;;19.14;41.64
76122;BME280;64853;53.200;6.080;2023-03-01T20:35:24;102832.69;;;19.25;41.60
76122;BME280;64853;53.200;6.080;2023-03-01T20:40:16;102838.00;;;19.15;41.65
76122;BME280;64853;53.200;6.080;2023-03-01T20:45:10;102849.06;;;19.15;41.61
76122;BME280;64853;53.200;6.080;2023-03-01T20:50:04;102833.19;;;18.93;41.83
76122;BME280;64853;53.200;6.080;2023-03-01T20:54:56;102863.16;;;19.01;41.20
76122;BME280;64853;53.200;6.080;2023-03-01T20:59:47;102841.47;;;18.81;41.11
76122;BME280;64853;53.200;6.080;2023-03-01T21:04:39;102873.16;;;18.90;41.14
76122;BME280;64853;53.200;6.080;2023-03-01T21:09:32;102869.47;;;18.85;41.08
76122;BME280;64853;53.200;6.080;2023-03-01T21:14:24;102874.00;;;18.79;41.13
76122;BME280;64853;53.200;6.080;2023-03-01T21:19:16;102872.81;;;18.75;41.11
76122;BME280;64853;53.200;6.080;2023-03-01T21:24:07;102875.22;;;18.71;40.45
76122;BME280;64853;53.200;6.080;2023-03-01T21:29:02;102866.00;;;18.66;40.62
76122;BME280;64853;53.200;6.080;2023-03-01T21:33:56;102866.25;;;18.64;40.63
76122;BME280;64853;53.200;6.080;2023-03-01T21:38:48;102851.03;;;18.50;40.68
76122;BME280;64853;53.200;6.080;2023-03-01T21:43:42;102863.81;;;18.56;40.68
76122;BME280;64853;53.200;6.080;2023-03-01T21:48:36;102849.91;;;18.51;40.69
76122;BME280;64853;53.200;6.080;2023-03-01T21:53:30;102859.53;;;18.48;40.37
76122;BME280;64853;53.200;6.080;2023-03-01T21:58:22;102855.34;;;18.46;40.56
76122;BME280;64853;53.200;6.080;2023-03-01T22:03:15;102854.13;;;18.42;40.48
76122;BME280;64853;53.200;6.080;2023-03-01T22:08:08;102853.78;;;18.38;40.39
76122;BME280;64853;53.200;6.080;2023-03-01T22:13:00;102854.25;;;18.35;40.34
76122;BME280;64853;53.200;6.080;2023-03-01T22:17:52;102859.41;;;18.31;40.31
76122;BME280;64853;53.200;6.080;2023-03-01T22:22:44;102858.22;;;18.27;40.49
76122;BME280;64853;53.200;6.080;2023-03-01T22:27:37;102853.66;;;18.21;40.47
76122;BME280;64853;53.200;6.080;2023-03-01T22:32:29;102859.66;;;18.18;40.18
76122;BME280;64853;53.200;6.080;2023-03-01T22:37:20;102859.78;;;18.11;40.16
76122;BME280;64853;53.200;6.080;2023-03-01T22:42:12;102869.97;;;18.11;40.31
76122;BME280;64853;53.200;6.080;2023-03-01T22:47:06;102874.91;;;18.09;40.27
76122;BME280;64853;53.200;6.080;2023-03-01T22:51:58;102875.22;;;18.00;40.10
76122;BME280;64853;53.200;6.080;2023-03-01T22:56:51;102862.63;;;17.93;40.13
76122;BME280;64853;53.200;6.080;2023-03-01T23:01:43;102865.72;;;17.96;40.19
76122;BME280;64853;53.200;6.080;2023-03-01T23:06:37;102872.31;;;17.95;40.17
76122;BME280;64853;53.200;6.080;2023-03-01T23:11:39;102868.97;;;17.93;39.89
76122;BME280;64853;53.200;6.080;2023-03-01T23:16:31;102865.00;;;17.89;40.06
76122;BME280;64853;53.200;6.080;2023-03-01T23:21:22;102852.25;;;17.76;40.11
76122;BME280;64853;53.200;6.080;2023-03-01T23:26:17;102864.03;;;17.83;39.93
76122;BME280;64853;53.200;6.080;2023-03-01T23:31:13;102858.13;;;17.80;40.07
76122;BME280;64853;53.200;6.080;2023-03-01T23:36:06;102857.19;;;17.74;39.88
76122;BME280;64853;53.200;6.080;2023-03-01T23:41:08;102854.06;;;17.71;39.99
76122;BME280;64853;53.200;6.080;2023-03-01T23:46:01;102852.97;;;17.72;39.77
76122;BME280;64853;53.200;6.080;2023-03-01T23:50:53;102849.03;;;17.67;39.76
76122;BME280;64853;53.200;6.080;2023-03-01T23:55:48;102859.66;;;17.64;39.91
